Time;durP1;ratioP1;P1;durP2;ratioP2;P2;SDS_P1;SDS_P2;PMS_P1;PMS_P2;Temp;Humidity;BMP_temperature;BMP_pressure;BME280_temperature;BME280_humidity;BME280_pressure;Samples;Min_cycle;Max_cycle;Signal;HPM_P1;HPM_P2
2022/04/22 00:01:05;;;;;;;4.88;3.13;;;12.20;99.90;;;;;;5084376;28;20055;-67
2022/04/22 00:03:30;;;;;;;6.25;3.53;;;12.20;99.90;;;;;;5082967;28;20040;-66
2022/04/22 00:05:56;;;;;;;7.25;3.35;;;12.10;99.90;;;;;;5086181;28;20101;-65
2022/04/22 00:08:22;;;;;;;6.05;2.90;;;12.10;99.90;;;;;;5081928;28;20040;-66
2022/04/22 00:13:31;;;;;;;5.38;3.33;;;12.00;99.90;;;;;;5085676;28;20501;-66
2022/04/22 00:15:57;;;;;;;5.00;2.97;;;12.00;99.90;;;;;;5084310;28;20072;-66
2022/04/22 00:18:24;;;;;;;6.22;3.35;;;11.90;99.90;;;;;;5086095;28;20044;-66
2022/04/22 00:20:50;;;;;;;6.95;3.97;;;11.80;99.90;;;;;;5084283;28;20527;-66
2022/04/22 00:23:15;;;;;;;8.00;4.45;;;11.70;99.90;;;;;;5085345;28;20120;-66
2022/04/22 00:25:41;;;;;;;7.88;4.20;;;11.70;99.90;;;;;;5086933;28;20402;-66
2022/04/22 00:28:06;;;;;;;9.52;4.80;;;11.70;99.90;;;;;;5084096;28;20041;-65
2022/04/22 00:30:32;;;;;;;11.20;5.10;;;11.60;99.90;;;;;;5084975;28;21565;-66
2022/04/22 00:32:57;;;;;;;9.18;4.97;;;11.50;99.90;;;;;;5083351;28;20131;-66
2022/04/22 00:35:23;;;;;;;10.77;5.50;;;11.40;99.90;;;;;;5085419;28;20508;-66
2022/04/22 00:37:49;;;;;;;11.90;5.38;;;11.50;99.90;;;;;;5083563;28;20048;-67
2022/04/22 00:40:15;;;;;;;9.35;5.50;;;11.40;99.90;;;;;;5084559;28;20163;-66
2022/04/22 00:42:41;;;;;;;12.02;5.95;;;11.30;99.90;;;;;;5083529;28;20132;-66
2022/04/22 00:45:08;;;;;;;9.77;5.80;;;11.30;99.90;;;;;;5085386;28;20071;-65
2022/04/22 00:47:33;;;;;;;10.48;5.78;;;11.30;99.90;;;;;;5087967;28;20040;-66
2022/04/22 00:49:59;;;;;;;11.30;6.28;;;11.30;99.90;;;;;;5086091;28;20988;-66
2022/04/22 00:52:24;;;;;;;10.20;6.50;;;11.30;99.90;;;;;;5086504;28;20427;-66
2022/04/22 00:54:50;;;;;;;10.05;6.40;;;11.20;99.90;;;;;;5087353;28;20036;-66
2022/04/22 00:57:20;;;;;;;12.48;6.63;;;11.20;99.90;;;;;;5087925;28;20112;-67
2022/04/22 00:59:46;;;;;;;10.88;6.70;;;11.20;99.90;;;;;;5090259;28;20371;-66
2022/04/22 01:02:12;;;;;;;12.05;7.03;;;11.10;99.90;;;;;;5087536;28;20036;-68
2022/04/22 01:10:08;;;;;;;11.55;6.55;;;11.10;99.90;;;;;;5080610;28;20210;-65
2022/04/22 01:12:34;;;;;;;11.38;6.47;;;11.10;99.90;;;;;;5085887;28;20047;-66
2022/04/22 01:15:00;;;;;;;13.35;6.85;;;11.10;99.90;;;;;;5088328;28;20072;-66
2022/04/22 01:17:26;;;;;;;10.02;6.68;;;11.00;99.90;;;;;;5088214;28;20176;-66
2022/04/22 01:19:56;;;;;;;11.05;7.07;;;11.00;99.90;;;;;;5087454;28;20124;-66
2022/04/22 01:22:22;;;;;;;11.35;6.57;;;11.00;99.90;;;;;;5085254;28;20780;-66
2022/04/22 01:24:53;;;;;;;13.13;6.20;;;11.00;99.90;;;;;;5089004;28;20464;-66
2022/04/22 01:27:19;;;;;;;12.55;6.55;;;11.00;99.90;;;;;;5085653;28;20063;-66
2022/04/22 01:29:45;;;;;;;11.60;6.97;;;11.00;99.90;;;;;;5087954;28;20039;-65
2022/04/22 01:32:10;;;;;;;10.50;6.95;;;10.90;99.90;;;;;;5087096;28;20093;-66
2022/04/22 01:34:37;;;;;;;12.07;6.55;;;10.90;99.90;;;;;;5086184;28;20040;-67
2022/04/22 01:37:03;;;;;;;10.82;7.28;;;10.90;99.90;;;;;;5088595;28;20055;-66
2022/04/22 01:39:30;;;;;;;13.57;6.90;;;10.90;99.90;;;;;;5087375;28;20036;-67
2022/04/22 01:41:55;;;;;;;11.52;6.47;;;10.90;99.90;;;;;;5088056;28;20044;-67
2022/04/22 01:44:21;;;;;;;12.20;7.07;;;10.90;99.90;;;;;;5085916;28;20120;-67
2022/04/22 01:46:46;;;;;;;13.40;7.22;;;10.90;99.90;;;;;;5088201;28;20048;-66
2022/04/22 01:49:12;;;;;;;12.73;7.78;;;10.80;99.90;;;;;;5088900;28;20555;-66
2022/04/22 01:51:38;;;;;;;12.07;6.85;;;10.80;99.90;;;;;;5090430;28;20044;-67
2022/04/22 01:54:04;;;;;;;12.23;7.57;;;10.70;99.90;;;;;;5085702;28;20166;-67
2022/04/22 01:56:29;;;;;;;11.30;7.32;;;10.70;99.90;;;;;;5087082;28;20048;-66
2022/04/22 01:58:55;;;;;;;10.55;6.97;;;10.60;99.90;;;;;;5087332;28;20040;-67
2022/04/22 02:01:20;;;;;;;12.15;7.22;;;10.60;99.90;;;;;;5087267;28;20102;-66
2022/04/22 02:03:46;;;;;;;14.30;7.95;;;10.50;99.90;;;;;;5087541;28;20484;-66
2022/04/22 02:06:12;;;;;;;13.82;7.72;;;10.50;99.90;;;;;;5087287;28;20055;-65
2022/04/22 02:08:38;;;;;;;14.10;8.32;;;10.30;99.90;;;;;;5084250;28;20060;-66
2022/04/22 02:11:04;;;;;;;16.27;8.43;;;10.30;99.90;;;;;;5088112;28;20054;-66
2022/04/22 02:13:36;;;;;;;15.50;8.30;;;10.40;99.90;;;;;;5083796;28;20043;-65
2022/04/22 02:16:05;;;;;;;16.48;8.85;;;10.30;99.90;;;;;;5086943;28;20589;-65
2022/04/22 02:18:31;;;;;;;15.60;8.88;;;10.30;99.90;;;;;;5086888;28;20405;-65
2022/04/22 02:20:57;;;;;;;17.05;9.55;;;10.30;99.90;;;;;;5088538;28;20079;-66
2022/04/22 02:23:23;;;;;;;15.63;8.75;;;10.20;99.90;;;;;;5083661;28;20104;-65
2022/04/22 02:25:48;;;;;;;17.05;9.02;;;10.20;99.90;;;;;;5088954;28;20047;-64
2022/04/22 02:28:32;;;;;;;16.20;9.95;;;10.20;99.90;;;;;;5081004;28;20047;-66
2022/04/22 02:31:08;;;;;;;14.57;8.85;;;10.20;99.90;;;;;;5086416;28;20443;-66
2022/04/22 02:33:37;;;;;;;14.27;9.35;;;10.10;99.90;;;;;;5083984;28;20044;-65
2022/04/22 02:36:04;;;;;;;15.70;9.93;;;10.10;99.90;;;;;;5085954;28;20051;-65
2022/04/22 02:38:30;;;;;;;15.00;9.93;;;10.10;99.90;;;;;;5084811;28;20058;-66
2022/04/22 02:46:25;;;;;;;17.63;9.90;;;10.00;99.90;;;;;;5087061;28;20052;-66
2022/04/22 02:48:51;;;;;;;19.05;10.82;;;9.90;99.90;;;;;;5088576;28;20033;-64
2022/04/22 02:51:18;;;;;;;19.38;10.35;;;9.90;99.90;;;;;;5086757;28;20452;-65
2022/04/22 02:53:44;;;;;;;17.23;10.40;;;9.90;99.90;;;;;;5086263;28;20131;-65
2022/04/22 02:56:10;;;;;;;19.05;11.20;;;9.80;99.90;;;;;;5079520;28;20134;-65
2022/04/22 02:58:36;;;;;;;17.65;10.80;;;9.80;99.90;;;;;;5084189;28;20097;-64
2022/04/22 03:01:03;;;;;;;19.90;11.05;;;9.70;99.90;;;;;;5088113;28;20119;-65
2022/04/22 03:03:29;;;;;;;19.80;10.57;;;9.60;99.90;;;;;;5084805;28;20063;-65
2022/04/22 03:05:54;;;;;;;17.40;10.65;;;9.60;99.90;;;;;;5086540;28;20404;-65
2022/04/22 03:08:20;;;;;;;17.52;10.18;;;9.60;99.90;;;;;;5081830;28;20106;-65
2022/04/22 03:10:48;;;;;;;19.33;10.70;;;9.70;99.90;;;;;;5085349;28;20143;-64
2022/04/22 03:13:14;;;;;;;19.45;10.68;;;9.70;99.90;;;;;;5083025;28;20075;-65
2022/04/22 03:15:41;;;;;;;15.73;9.75;;;9.60;99.90;;;;;;5081473;28;20142;-64
2022/04/22 03:18:07;;;;;;;17.23;10.68;;;9.60;99.90;;;;;;5085255;28;20120;-64
2022/04/22 03:20:33;;;;;;;19.75;10.30;;;9.60;99.90;;;;;;5086908;28;20086;-65
2022/04/22 03:22:58;;;;;;;17.65;10.38;;;9.60;99.90;;;;;;5087349;28;20062;-64
2022/04/22 03:25:24;;;;;;;17.75;10.20;;;9.50;99.90;;;;;;5084312;28;20434;-64
2022/04/22 03:27:51;;;;;;;16.17;10.50;;;9.40;99.90;;;;;;5082748;28;20128;-65
2022/04/22 03:30:17;;;;;;;18.02;9.82;;;9.40;99.90;;;;;;5080246;28;20052;-65
2022/04/22 03:32:43;;;;;;;16.40;9.30;;;9.40;99.90;;;;;;5081629;28;20036;-65
2022/04/22 03:35:08;;;;;;;17.20;10.15;;;9.30;99.90;;;;;;5083852;28;20047;-64
2022/04/22 03:37:34;;;;;;;17.38;9.93;;;9.30;99.90;;;;;;5086680;28;20047;-65
2022/04/22 03:40:00;;;;;;;18.65;10.25;;;9.30;99.90;;;;;;5081929;28;20036;-66
2022/04/22 03:42:25;;;;;;;15.13;9.65;;;9.30;99.90;;;;;;5085177;28;20095;-65
2022/04/22 03:44:51;;;;;;;17.35;9.68;;;9.20;99.90;;;;;;5084106;28;20068;-64
2022/04/22 03:47:16;;;;;;;16.20;9.25;;;9.30;99.90;;;;;;5084482;28;20040;-65
2022/04/22 03:49:42;;;;;;;13.55;9.05;;;9.30;99.90;;;;;;5085400;28;20044;-66
2022/04/22 03:52:08;;;;;;;15.55;9.40;;;9.20;99.90;;;;;;5086403;28;20040;-65
2022/04/22 03:54:33;;;;;;;17.60;9.43;;;9.20;99.90;;;;;;5084354;28;20039;-65
2022/04/22 03:59:43;;;;;;;15.82;9.32;;;9.10;99.90;;;;;;5086268;28;20472;-65
2022/04/22 04:02:09;;;;;;;16.40;9.32;;;9.10;99.90;;;;;;5085247;28;20036;-66
2022/04/22 04:04:34;;;;;;;15.10;8.95;;;9.10;99.90;;;;;;5083826;28;20043;-65
2022/04/22 04:07:00;;;;;;;17.05;9.73;;;9.00;99.90;;;;;;5082612;28;20199;-65
2022/04/22 04:17:38;;;;;;;15.15;8.15;;;9.00;99.90;;;;;;5083245;28;20064;-65
2022/04/22 04:25:34;;;;;;;13.18;8.13;;;9.00;99.90;;;;;;5087815;28;20044;-65
2022/04/22 04:28:00;;;;;;;16.67;8.48;;;8.90;99.90;;;;;;5084611;28;20044;-64
2022/04/22 04:30:26;;;;;;;14.73;8.07;;;8.90;99.90;;;;;;5090552;28;20897;-65
2022/04/22 04:32:51;;;;;;;13.70;7.88;;;8.90;99.90;;;;;;5088206;28;20116;-65
2022/04/22 04:35:17;;;;;;;13.27;7.70;;;8.90;99.90;;;;;;5083648;28;20055;-66
2022/04/22 04:37:43;;;;;;;15.50;8.18;;;8.90;99.90;;;;;;5083901;28;20066;-66
2022/04/22 04:40:09;;;;;;;13.18;7.03;;;8.80;99.90;;;;;;5085865;28;20184;-65
2022/04/22 04:42:35;;;;;;;16.00;7.57;;;8.80;99.90;;;;;;5083633;28;20134;-65
2022/04/22 04:45:01;;;;;;;11.68;6.82;;;8.80;99.90;;;;;;5088519;28;20040;-65
2022/04/22 04:47:26;;;;;;;13.38;6.72;;;8.70;99.90;;;;;;5083918;28;20045;-65
2022/04/22 04:49:52;;;;;;;13.98;7.07;;;8.70;99.90;;;;;;5091194;28;20075;-65
2022/04/22 04:52:18;;;;;;;11.35;6.25;;;8.70;99.90;;;;;;5088959;28;20052;-64
2022/04/22 04:54:44;;;;;;;11.02;6.63;;;8.70;99.90;;;;;;5084742;28;20040;-64
2022/04/22 04:57:09;;;;;;;13.75;7.07;;;8.80;99.90;;;;;;5088959;28;20121;-64
2022/04/22 04:59:35;;;;;;;10.95;6.38;;;9.10;99.90;;;;;;5091807;28;20063;-64
2022/04/22 05:02:00;;;;;;;11.07;6.65;;;9.10;99.90;;;;;;5089158;28;20056;-66
2022/04/22 05:04:26;;;;;;;12.02;6.55;;;8.90;99.90;;;;;;5075150;28;20076;-65
2022/04/22 05:06:51;;;;;;;12.05;6.03;;;8.90;99.90;;;;;;5081814;28;20096;-65
2022/04/22 05:09:17;;;;;;;12.25;5.82;;;8.80;99.90;;;;;;5087180;28;20075;-64
2022/04/22 05:11:43;;;;;;;10.85;5.97;;;8.80;99.90;;;;;;5086690;28;20031;-64
2022/04/22 05:14:08;;;;;;;12.73;6.13;;;8.80;99.90;;;;;;5090527;28;20043;-65
2022/04/22 05:16:34;;;;;;;9.38;5.70;;;8.80;99.90;;;;;;5088586;28;20044;-65
2022/04/22 05:18:59;;;;;;;10.65;5.82;;;8.70;99.90;;;;;;5085782;28;20052;-64
2022/04/22 05:21:25;;;;;;;10.52;5.70;;;8.70;99.90;;;;;;5077951;28;20055;-63
2022/04/22 05:23:50;;;;;;;10.77;5.50;;;8.70;99.90;;;;;;5084456;28;20071;-64
2022/04/22 05:26:16;;;;;;;10.55;5.82;;;8.70;99.90;;;;;;5087361;28;20075;-64
2022/04/22 05:28:42;;;;;;;10.15;5.47;;;8.60;99.90;;;;;;5087470;28;20558;-63
2022/04/22 05:33:51;;;;;;;9.68;5.30;;;8.70;99.90;;;;;;5081972;28;20040;-64
2022/04/22 05:36:20;;;;;;;9.68;5.25;;;8.80;99.90;;;;;;5085516;28;20044;-64
2022/04/22 05:38:45;;;;;;;10.50;4.90;;;8.80;99.90;;;;;;5084084;28;20646;-65
2022/04/22 05:41:11;;;;;;;8.48;4.78;;;8.90;99.90;;;;;;5084116;28;20063;-66
2022/04/22 05:43:37;;;;;;;8.60;4.82;;;9.00;99.90;;;;;;5082988;28;20040;-64
2022/04/22 05:46:03;;;;;;;9.60;5.03;;;9.00;99.90;;;;;;5086065;28;20040;-67
2022/04/22 05:48:28;;;;;;;10.27;4.95;;;9.00;99.90;;;;;;5088165;28;20032;-65
2022/04/22 05:50:55;;;;;;;9.82;5.13;;;9.10;99.90;;;;;;5089294;28;20112;-66
2022/04/22 05:53:20;;;;;;;8.05;4.35;;;9.10;99.90;;;;;;5087325;28;20439;-65
2022/04/22 05:55:46;;;;;;;8.63;5.05;;;9.10;99.90;;;;;;5085580;28;20056;-65
2022/04/22 05:58:12;;;;;;;8.05;5.07;;;9.20;99.90;;;;;;5088481;28;20093;-64
2022/04/22 06:00:37;;;;;;;10.63;4.70;;;9.30;99.90;;;;;;5090340;28;20063;-64
2022/04/22 06:03:03;;;;;;;7.82;4.57;;;9.40;99.90;;;;;;5089241;28;20066;-66
2022/04/22 06:05:29;;;;;;;8.90;4.55;;;9.40;99.90;;;;;;5091318;28;20105;-64
2022/04/22 06:10:40;;;;;;;10.45;5.07;;;9.60;99.90;;;;;;5089275;28;20132;-64
2022/04/22 06:13:06;;;;;;;7.05;4.07;;;9.60;99.90;;;;;;5087905;28;20064;-64
2022/04/22 06:15:33;;;;;;;8.75;4.50;;;9.70;99.90;;;;;;5089887;28;20040;-64
2022/04/22 06:17:59;;;;;;;8.70;4.65;;;9.70;99.90;;;;;;5089256;28;20122;-64
2022/04/22 06:20:25;;;;;;;7.57;4.57;;;9.70;99.90;;;;;;5089210;28;20036;-64
2022/04/22 06:22:51;;;;;;;8.13;4.50;;;9.70;99.90;;;;;;5086199;28;20064;-66
2022/04/22 06:25:17;;;;;;;8.88;4.25;;;9.70;99.90;;;;;;5088596;28;20143;-65
2022/04/22 06:27:44;;;;;;;7.15;4.05;;;9.80;99.90;;;;;;5089197;28;20040;-65
2022/04/22 06:30:13;;;;;;;8.48;4.28;;;9.80;99.90;;;;;;5087344;28;20459;-64
2022/04/22 06:32:40;;;;;;;9.35;4.57;;;9.80;99.90;;;;;;5088731;28;20461;-63
2022/04/22 06:35:07;;;;;;;7.13;4.45;;;9.90;99.90;;;;;;5088319;28;20040;-64
2022/04/22 06:37:52;;;;;;;9.52;4.75;;;10.00;99.90;;;;;;5087935;28;20040;-64
2022/04/22 06:45:51;;;;;;;10.00;4.75;;;10.10;99.90;;;;;;5037570;28;20381;-64
2022/04/22 06:48:33;;;;;;;6.95;4.28;;;10.10;99.90;;;;;;5067968;28;20120;-64
2022/04/22 06:50:59;;;;;;;8.15;4.00;;;10.10;99.90;;;;;;5080778;28;20047;-64
2022/04/22 06:53:26;;;;;;;11.68;4.60;;;10.10;99.90;;;;;;5086351;28;20044;-65
2022/04/22 06:55:53;;;;;;;8.82;4.05;;;10.20;99.90;;;;;;5087769;28;20078;-64
2022/04/22 06:58:20;;;;;;;8.25;3.92;;;10.30;99.90;;;;;;5085520;28;20062;-64
2022/04/22 07:00:46;;;;;;;7.00;4.00;;;10.60;99.90;;;;;;5085598;28;20420;-64
2022/04/22 07:03:14;;;;;;;8.70;4.20;;;10.70;99.90;;;;;;5082205;28;20059;-64
2022/04/22 07:05:41;;;;;;;8.65;3.85;;;10.70;99.90;;;;;;5088813;28;20561;-64
2022/04/22 07:08:14;;;;;;;6.65;4.13;;;10.80;99.90;;;;;;5084320;28;20086;-65
2022/04/22 07:10:43;;;;;;;7.75;3.88;;;10.90;99.90;;;;;;5087832;28;20408;-65
2022/04/22 07:13:10;;;;;;;9.43;4.20;;;11.00;99.90;;;;;;5086787;28;20360;-64
2022/04/22 07:15:38;;;;;;;8.02;4.15;;;11.00;99.90;;;;;;5088425;28;20028;-64
2022/04/22 07:18:04;;;;;;;8.27;4.07;;;11.10;99.90;;;;;;5076098;28;20115;-65
2022/04/22 07:20:29;;;;;;;8.95;4.00;;;11.10;99.90;;;;;;5086483;28;20107;-64
2022/04/22 07:22:55;;;;;;;8.85;4.47;;;11.10;99.90;;;;;;5086397;28;20558;-65
2022/04/22 07:25:21;;;;;;;6.82;3.80;;;11.20;99.90;;;;;;5086220;28;20528;-64
2022/04/22 07:27:48;;;;;;;6.50;3.63;;;11.20;99.90;;;;;;5088379;28;20136;-64
2022/04/22 07:30:16;;;;;;;9.70;3.83;;;11.40;99.90;;;;;;5087806;28;20076;-64
2022/04/22 07:32:45;;;;;;;7.70;4.20;;;11.50;99.90;;;;;;5085444;28;20421;-64
2022/04/22 07:35:12;;;;;;;7.57;4.15;;;11.60;99.90;;;;;;5084122;28;20048;-64
2022/04/22 07:37:41;;;;;;;6.13;3.80;;;11.70;99.90;;;;;;5087483;28;20032;-64
2022/04/22 07:40:08;;;;;;;6.85;3.97;;;11.70;99.90;;;;;;5083824;28;20051;-64
2022/04/22 07:42:35;;;;;;;7.00;3.67;;;11.70;99.90;;;;;;5088017;28;20521;-64
2022/04/22 07:47:47;;;;;;;8.40;3.60;;;11.90;99.90;;;;;;5072247;28;20081;-66
2022/04/22 07:50:18;;;;;;;7.45;3.70;;;12.00;99.90;;;;;;5087509;28;20067;-65
2022/04/22 07:52:45;;;;;;;8.65;3.53;;;12.00;99.90;;;;;;5085600;28;20526;-66
2022/04/22 07:55:13;;;;;;;6.38;3.72;;;12.10;99.90;;;;;;5083951;28;20056;-66
2022/04/22 07:57:40;;;;;;;7.47;3.33;;;12.20;99.90;;;;;;5087163;28;20051;-65
2022/04/22 08:00:07;;;;;;;7.13;3.78;;;12.20;99.90;;;;;;5087041;28;20083;-66
2022/04/22 08:02:33;;;;;;;7.00;3.38;;;12.30;99.90;;;;;;5083680;28;20479;-67
2022/04/22 08:04:59;;;;;;;5.97;3.30;;;12.40;98.80;;;;;;5067870;28;20040;-66
2022/04/22 08:07:24;;;;;;;8.27;3.97;;;12.50;99.30;;;;;;5073178;28;20047;-66
2022/04/22 08:09:51;;;;;;;7.90;3.65;;;12.60;99.50;;;;;;5067257;28;20091;-65
2022/04/22 08:12:18;;;;;;;9.15;3.97;;;12.70;99.90;;;;;;5081727;28;20472;-66
2022/04/22 08:14:44;;;;;;;6.63;3.80;;;12.70;99.00;;;;;;5087354;28;20518;-65
2022/04/22 08:17:10;;;;;;;6.32;3.50;;;12.70;97.80;;;;;;5076942;28;20115;-66
2022/04/22 08:19:35;;;;;;;9.25;3.80;;;12.80;98.30;;;;;;5067787;28;20083;-66
2022/04/22 08:22:01;;;;;;;7.47;3.50;;;12.90;97.80;;;;;;5068753;28;20052;-67
2022/04/22 08:24:27;;;;;;;7.97;3.95;;;13.00;98.60;;;;;;5087583;28;20079;-65
2022/04/22 08:26:53;;;;;;;6.38;3.58;;;13.00;98.30;;;;;;5086599;28;20051;-66
2022/04/22 08:29:19;;;;;;;7.65;3.60;;;13.10;96.90;;;;;;5086669;28;20044;-66
2022/04/22 08:31:45;;;;;;;7.43;3.42;;;13.10;97.10;;;;;;5088099;28;20040;-65
2022/04/22 08:34:10;;;;;;;7.15;3.25;;;13.20;96.20;;;;;;5086357;28;20437;-65
2022/04/22 08:36:36;;;;;;;6.38;3.17;;;13.20;94.60;;;;;;5084724;28;20630;-65
2022/04/22 08:39:02;;;;;;;5.45;2.90;;;13.30;93.90;;;;;;5086703;28;20040;-68
2022/04/22 08:41:27;;;;;;;6.70;3.22;;;13.30;93.00;;;;;;5086058;28;20036;-67
2022/04/22 08:43:58;;;;;;;6.45;3.13;;;13.40;93.90;;;;;;5088750;28;20104;-65
2022/04/22 08:51:55;;;;;;;6.88;3.17;;;13.60;94.40;;;;;;5085669;28;20084;-67
2022/04/22 08:54:21;;;;;;;6.35;3.00;;;13.60;94.00;;;;;;5087593;28;20086;-66
2022/04/22 08:56:49;;;;;;;5.80;2.72;;;13.70;93.80;;;;;;5087144;28;20521;-66
2022/04/22 08:59:15;;;;;;;6.55;3.22;;;13.80;92.10;;;;;;5088797;28;20036;-65
2022/04/22 09:01:41;;;;;;;6.60;2.85;;;13.80;91.70;;;;;;5088519;28;20493;-64
2022/04/22 09:04:06;;;;;;;6.50;2.90;;;13.90;91.70;;;;;;5087480;28;20135;-66
2022/04/22 09:06:33;;;;;;;7.65;2.72;;;13.90;90.40;;;;;;5081862;28;20047;-66
2022/04/22 09:08:58;;;;;;;8.27;2.53;;;14.00;90.90;;;;;;5090881;28;20415;-65
2022/04/22 09:11:25;;;;;;;5.05;2.78;;;14.00;90.40;;;;;;5085849;28;20070;-65
2022/04/22 09:13:51;;;;;;;6.28;2.50;;;14.10;90.20;;;;;;5091070;28;20055;-66
2022/04/22 09:16:20;;;;;;;5.50;2.35;;;14.10;89.40;;;;;;5089942;28;20438;-67
2022/04/22 09:18:46;;;;;;;5.43;2.72;;;14.10;87.40;;;;;;5090760;28;20047;-66
2022/04/22 09:21:16;;;;;;;4.80;2.22;;;14.20;90.10;;;;;;5092475;28;20127;-66
2022/04/22 09:23:42;;;;;;;6.82;2.30;;;14.30;90.10;;;;;;5090672;28;20040;-65
2022/04/22 09:26:19;;;;;;;5.57;2.22;;;14.40;88.30;;;;;;5091251;28;20499;-66
2022/04/22 09:28:58;;;;;;;5.22;2.40;;;14.50;88.30;;;;;;5074736;28;20043;-66
2022/04/22 09:31:25;;;;;;;4.15;2.25;;;14.60;88.30;;;;;;5091301;28;20119;-66
2022/04/22 09:33:51;;;;;;;4.85;2.13;;;14.70;87.30;;;;;;5085998;28;20045;-66
2022/04/22 09:44:51;;;;;;;4.43;1.90;;;14.80;77.20;;;;;;5083389;28;20060;-66
2022/04/22 09:47:16;;;;;;;5.45;1.92;;;14.80;80.10;;;;;;5088532;28;20054;-66
2022/04/22 09:49:43;;;;;;;5.03;2.10;;;15.00;83.10;;;;;;5089886;28;20040;-67
2022/04/22 09:52:09;;;;;;;5.22;2.00;;;15.20;82.60;;;;;;5083755;28;20079;-65
2022/04/22 09:54:34;;;;;;;3.00;1.70;;;15.20;76.50;;;;;;5083197;28;20064;-66
2022/04/22 09:57:03;;;;;;;5.18;1.98;;;15.30;75.90;;;;;;5079491;28;20479;-66
2022/04/22 09:59:32;;;;;;;6.28;2.38;;;15.30;75.80;;;;;;5091372;28;20119;-65
2022/04/22 10:02:00;;;;;;;5.38;2.08;;;15.30;72.20;;;;;;5090743;28;20039;-66
2022/04/22 10:04:26;;;;;;;5.38;1.90;;;15.40;73.20;;;;;;5084290;28;20048;-65
2022/04/22 10:06:52;;;;;;;7.68;2.22;;;15.40;72.40;;;;;;5081700;28;20056;-65
2022/04/22 10:09:22;;;;;;;9.30;2.83;;;15.50;72.80;;;;;;5083692;28;20040;-65
2022/04/22 10:11:47;;;;;;;5.55;2.30;;;15.60;71.30;;;;;;5085501;28;20054;-66
2022/04/22 10:14:15;;;;;;;4.50;2.15;;;15.60;70.60;;;;;;5084903;28;20420;-66
2022/04/22 10:16:41;;;;;;;4.07;2.10;;;15.60;67.50;;;;;;5083112;28;20034;-65
2022/04/22 10:19:08;;;;;;;5.72;2.33;;;15.60;70.00;;;;;;5087190;28;20040;-67
2022/04/22 10:21:34;;;;;;;5.10;1.90;;;15.80;71.10;;;;;;5084654;28;20183;-66
2022/04/22 10:24:00;;;;;;;8.02;2.33;;;15.80;68.70;;;;;;5084472;28;20131;-63
2022/04/22 10:26:26;;;;;;;5.57;2.35;;;15.70;66.20;;;;;;5084571;28;20040;-64
2022/04/22 10:28:53;;;;;;;5.15;2.22;;;15.80;66.70;;;;;;5083758;28;20086;-63
2022/04/22 10:31:20;;;;;;;5.80;2.70;;;15.80;67.70;;;;;;5083168;28;20560;-63
2022/04/22 10:33:46;;;;;;;6.85;1.90;;;15.90;68.40;;;;;;5082579;28;20040;-64
2022/04/22 10:36:19;;;;;;;5.00;2.45;;;15.90;66.40;;;;;;5083956;28;20032;-64
2022/04/22 10:38:46;;;;;;;6.25;2.38;;;16.10;68.90;;;;;;5085546;28;20487;-63
2022/04/22 10:41:20;;;;;;;7.60;2.42;;;16.10;68.40;;;;;;5086194;28;20494;-65
2022/04/22 10:47:13;;;;;;;4.85;2.03;;;16.20;68.00;;;;;;5089370;28;20069;-64
2022/04/22 10:49:17;;;;;;;5.78;2.30;;;16.40;67.10;;;;;;5078334;28;20106;-64
2022/04/22 10:52:09;;;;;;;4.88;2.38;;;16.50;68.20;;;;;;5073187;28;20044;-64
2022/04/22 10:54:58;;;;;;;5.18;2.30;;;16.50;67.20;;;;;;5085080;28;20039;-64
2022/04/22 10:57:32;;;;;;;4.43;2.20;;;16.60;67.00;;;;;;5086866;28;20119;-64
2022/04/22 11:00:07;;;;;;;4.63;2.50;;;16.60;66.40;;;;;;5089765;28;20440;-64
2022/04/22 11:02:43;;;;;;;5.72;2.17;;;16.70;65.80;;;;;;5086840;28;20298;-65
2022/04/22 11:05:33;;;;;;;4.38;2.33;;;16.80;68.00;;;;;;5088420;28;20094;-64
2022/04/22 11:08:00;;;;;;;4.05;2.28;;;16.80;66.00;;;;;;5089010;28;20048;-64
2022/04/22 11:10:29;;;;;;;5.88;2.20;;;16.80;66.60;;;;;;5086542;28;20448;-64
2022/04/22 11:12:59;;;;;;;6.88;2.55;;;16.80;66.40;;;;;;5088843;28;20111;-64
2022/04/22 11:15:43;;;;;;;4.53;2.55;;;16.90;66.90;;;;;;5086879;28;20374;-64
2022/04/22 11:18:09;;;;;;;5.90;2.70;;;17.00;66.70;;;;;;5083298;28;20046;-64
2022/04/22 11:20:38;;;;;;;7.15;2.83;;;17.10;66.00;;;;;;5089968;28;20127;-66
2022/04/22 11:23:09;;;;;;;7.22;2.88;;;17.10;63.60;;;;;;5088300;28;20134;-64
2022/04/22 11:25:34;;;;;;;6.28;2.55;;;17.10;64.00;;;;;;5078780;28;20123;-65
2022/04/22 11:28:02;;;;;;;6.10;2.80;;;17.20;66.80;;;;;;5080520;28;20122;-65
2022/04/22 11:30:28;;;;;;;5.13;2.80;;;17.20;65.50;;;;;;5084307;28;20070;-65
2022/04/22 11:33:06;;;;;;;5.32;2.58;;;17.20;68.20;;;;;;5083117;28;20071;-65
2022/04/22 11:35:34;;;;;;;6.28;3.30;;;17.40;67.30;;;;;;5081811;28;20043;-65
2022/04/22 11:38:03;;;;;;;7.63;2.88;;;17.30;65.60;;;;;;5081022;28;20077;-65
2022/04/22 11:40:35;;;;;;;6.18;3.03;;;17.50;66.60;;;;;;5082445;28;20036;-65
2022/04/22 11:43:21;;;;;;;8.73;2.97;;;17.50;65.70;;;;;;5082633;28;20040;-65
2022/04/22 11:45:48;;;;;;;7.82;3.03;;;17.60;67.00;;;;;;5081468;28;20063;-65
2022/04/22 11:48:22;;;;;;;5.93;2.92;;;17.60;64.80;;;;;;5084020;28;20048;-65
2022/04/22 11:50:48;;;;;;;7.32;2.85;;;17.70;64.70;;;;;;5087207;28;20092;-64
2022/04/22 11:53:26;;;;;;;6.05;2.97;;;17.70;63.60;;;;;;5082137;28;20371;-65
2022/04/22 11:55:52;;;;;;;7.03;3.30;;;17.80;65.40;;;;;;5085486;28;20066;-64
2022/04/22 11:58:29;;;;;;;6.10;3.03;;;17.70;64.60;;;;;;5082046;28;20384;-65
2022/04/22 12:06:24;;;;;;;5.05;2.92;;;17.90;65.70;;;;;;5084726;28;20047;-65
2022/04/22 12:08:53;;;;;;;5.70;2.78;;;18.00;63.50;;;;;;5085498;28;20380;-66
2022/04/22 12:11:20;;;;;;;5.97;2.90;;;18.00;62.90;;;;;;5082555;28;20473;-67
2022/04/22 12:13:49;;;;;;;6.85;2.97;;;18.20;62.30;;;;;;5082079;28;20071;-65
2022/04/22 12:16:19;;;;;;;5.97;3.20;;;18.10;61.70;;;;;;5084306;28;20048;-66
2022/04/22 12:18:49;;;;;;;6.43;3.40;;;18.30;62.30;;;;;;5082168;28;20306;-65
2022/04/22 12:21:20;;;;;;;7.25;3.30;;;18.40;62.20;;;;;;5081792;28;20048;-65
2022/04/22 12:24:06;;;;;;;8.30;3.40;;;18.40;61.90;;;;;;5082703;28;20052;-65
2022/04/22 12:26:36;;;;;;;8.35;3.80;;;18.30;60.60;;;;;;5082690;28;20440;-65
2022/04/22 12:29:09;;;;;;;8.57;3.20;;;18.10;60.90;;;;;;5082505;28;20178;-67
2022/04/22 12:31:38;;;;;;;8.20;3.30;;;18.10;60.70;;;;;;5082738;28;20047;-65
2022/04/22 12:34:06;;;;;;;8.25;3.63;;;18.30;61.90;;;;;;5080451;28;20096;-64
2022/04/22 12:36:52;;;;;;;6.70;3.75;;;18.60;62.20;;;;;;5084216;28;20086;-65
2022/04/22 12:39:41;;;;;;;7.28;3.60;;;18.80;60.50;;;;;;5083296;28;20059;-64
2022/04/22 12:42:19;;;;;;;7.43;3.53;;;18.80;58.00;;;;;;5088624;28;20044;-64
2022/04/22 12:53:33;;;;;;;8.10;3.60;;;19.00;59.60;;;;;;5079752;28;20393;-64
2022/04/22 12:56:01;;;;;;;7.53;4.13;;;19.00;59.00;;;;;;5083477;28;20052;-65
2022/04/22 12:58:27;;;;;;;6.25;3.67;;;19.00;59.10;;;;;;5089953;28;20128;-64
2022/04/22 13:00:53;;;;;;;7.07;3.90;;;19.10;59.60;;;;;;5089108;28;20550;-65
2022/04/22 13:03:21;;;;;;;8.80;4.25;;;19.00;58.70;;;;;;5087952;28;20131;-65
2022/04/22 13:05:47;;;;;;;8.18;4.38;;;19.10;59.10;;;;;;5089497;28;20048;-63
2022/04/22 13:08:15;;;;;;;10.52;4.43;;;19.00;58.80;;;;;;5090421;28;20044;-64
2022/04/22 13:10:41;;;;;;;6.22;4.00;;;18.80;58.20;;;;;;5089012;28;20380;-65
2022/04/22 13:13:08;;;;;;;7.90;4.55;;;18.80;58.50;;;;;;5090223;28;20040;-64
2022/04/22 13:15:33;;;;;;;7.70;4.45;;;18.70;59.60;;;;;;5089935;28;20113;-65
2022/04/22 13:17:59;;;;;;;8.23;4.90;;;18.60;60.10;;;;;;5089534;28;20488;-64
2022/04/22 13:20:25;;;;;;;8.82;5.03;;;18.60;60.10;;;;;;5089102;28;20433;-64
2022/04/22 13:22:51;;;;;;;7.75;4.82;;;18.70;59.90;;;;;;5089967;28;20119;-64
2022/04/22 13:25:17;;;;;;;8.48;4.70;;;19.00;61.20;;;;;;5087695;28;20044;-64
2022/04/22 13:27:44;;;;;;;7.70;4.40;;;19.30;60.80;;;;;;5088878;28;20037;-64
2022/04/22 13:30:11;;;;;;;10.70;5.18;;;19.40;60.20;;;;;;5087070;28;20044;-64
2022/04/22 13:32:38;;;;;;;10.27;4.88;;;19.50;58.80;;;;;;5091181;28;20360;-64
2022/04/22 13:35:05;;;;;;;8.88;5.28;;;19.50;58.40;;;;;;5087284;28;20040;-64
2022/04/22 13:37:32;;;;;;;9.02;5.35;;;19.60;59.40;;;;;;5089376;28;20429;-64
2022/04/22 13:39:58;;;;;;;8.07;5.53;;;19.40;57.70;;;;;;5089578;28;20059;-64
2022/04/22 13:42:23;;;;;;;9.10;4.80;;;19.30;58.50;;;;;;5090482;28;20036;-65
2022/04/22 13:53:02;;;;;;;8.60;4.82;;;18.60;60.70;;;;;;5079309;28;20382;-63
2022/04/22 13:55:28;;;;;;;11.48;5.60;;;18.60;60.20;;;;;;5087030;28;20093;-64
2022/04/22 13:57:54;;;;;;;9.70;5.10;;;18.80;59.90;;;;;;5087449;28;20052;-64
2022/04/22 14:00:19;;;;;;;7.95;5.28;;;19.00;60.00;;;;;;5087382;28;20044;-64
2022/04/22 14:02:45;;;;;;;11.02;5.55;;;19.20;59.50;;;;;;5088918;28;20472;-64
2022/04/22 14:05:11;;;;;;;8.98;5.57;;;19.40;59.40;;;;;;5087509;28;20556;-64
2022/04/22 14:07:36;;;;;;;9.43;5.22;;;19.50;58.70;;;;;;5088401;28;20530;-65
2022/04/22 14:10:03;;;;;;;8.65;5.22;;;19.40;58.10;;;;;;5088422;28;20483;-65